sensor_id;sensor_type;location;lat;lon;timestamp;P1;durP1;ratioP1;P2;durP2;ratioP2
70800;SDS011;59616;52.170;5.386;2023-03-17T00:00:10;7.28;;;2.40;;
70800;SDS011;59616;52.170;5.386;2023-03-17T00:02:39;7.53;;;2.55;;
70800;SDS011;59616;52.170;5.386;2023-03-17T00:05:18;7.75;;;2.40;;
70800;SDS011;59616;52.170;5.386;2023-03-17T00:07:45;6.80;;;2.30;;
70800;SDS011;59616;52.170;5.386;2023-03-17T00:10:14;6.68;;;2.47;;
70800;SDS011;59616;52.170;5.386;2023-03-17T00:12:43;6.05;;;2.20;;
70800;SDS011;59616;52.170;5.386;2023-03-17T00:15:10;7.05;;;2.38;;
70800;SDS011;59616;52.170;5.386;2023-03-17T00:17:38;7.40;;;2.38;;
70800;SDS011;59616;52.170;5.386;2023-03-17T00:20:06;6.53;;;2.10;;
70800;SDS011;59616;52.170;5.386;2023-03-17T00:22:38;6.68;;;2.42;;
70800;SDS011;59616;52.170;5.386;2023-03-17T00:25:11;8.55;;;2.58;;
70800;SDS011;59616;52.170;5.386;2023-03-17T00:27:43;6.15;;;2.10;;
70800;SDS011;59616;52.170;5.386;2023-03-17T00:30:10;7.35;;;2.55;;
70800;SDS011;59616;52.170;5.386;2023-03-17T00:32:37;8.93;;;2.70;;
70800;SDS011;59616;52.170;5.386;2023-03-17T00:35:14;6.32;;;2.38;;
70800;SDS011;59616;52.170;5.386;2023-03-17T00:37:42;8.05;;;2.33;;
70800;SDS011;59616;52.170;5.386;2023-03-17T00:40:18;6.80;;;2.28;;
70800;SDS011;59616;52.170;5.386;2023-03-17T00:42:47;7.85;;;3.22;;
70800;SDS011;59616;52.170;5.386;2023-03-17T00:45:14;7.28;;;2.22;;
70800;SDS011;59616;52.170;5.386;2023-03-17T00:47:42;7.60;;;2.55;;
70800;SDS011;59616;52.170;5.386;2023-03-17T00:50:16;7.95;;;2.47;;
70800;SDS011;59616;52.170;5.386;2023-03-17T00:52:44;6.95;;;2.30;;
70800;SDS011;59616;52.170;5.386;2023-03-17T00:55:12;8.30;;;2.83;;
70800;SDS011;59616;52.170;5.386;2023-03-17T00:57:40;7.30;;;2.40;;
70800;SDS011;59616;52.170;5.386;2023-03-17T01:02:44;5.82;;;2.42;;
70800;SDS011;59616;52.170;5.386;2023-03-17T01:05:12;6.10;;;2.20;;
70800;SDS011;59616;52.170;5.386;2023-03-17T01:07:39;8.70;;;2.20;;
70800;SDS011;59616;52.170;5.386;2023-03-17T01:10:12;6.75;;;2.30;;
70800;SDS011;59616;52.170;5.386;2023-03-17T01:12:41;7.68;;;2.40;;
70800;SDS011;59616;52.170;5.386;2023-03-17T01:15:11;7.60;;;2.33;;
70800;SDS011;59616;52.170;5.386;2023-03-17T01:17:38;6.57;;;2.30;;
70800;SDS011;59616;52.170;5.386;2023-03-17T01:20:06;5.65;;;2.30;;
70800;SDS011;59616;52.170;5.386;2023-03-17T01:22:33;8.02;;;2.50;;
70800;SDS011;59616;52.170;5.386;2023-03-17T01:25:01;8.82;;;2.60;;
70800;SDS011;59616;52.170;5.386;2023-03-17T01:27:33;5.85;;;2.20;;
70800;SDS011;59616;52.170;5.386;2023-03-17T01:30:01;6.40;;;2.30;;
70800;SDS011;59616;52.170;5.386;2023-03-17T01:32:28;6.95;;;2.30;;
70800;SDS011;59616;52.170;5.386;2023-03-17T01:34:55;5.90;;;2.42;;
70800;SDS011;59616;52.170;5.386;2023-03-17T01:37:22;6.97;;;2.20;;
70800;SDS011;59616;52.170;5.386;2023-03-17T01:39:50;5.40;;;2.22;;
70800;SDS011;59616;52.170;5.386;2023-03-17T01:42:18;4.95;;;2.00;;
70800;SDS011;59616;52.170;5.386;2023-03-17T01:44:55;7.55;;;2.20;;
70800;SDS011;59616;52.170;5.386;2023-03-17T01:47:23;9.32;;;2.50;;
70800;SDS011;59616;52.170;5.386;2023-03-17T01:49:51;6.32;;;2.30;;
70800;SDS011;59616;52.170;5.386;2023-03-17T01:52:20;6.45;;;2.28;;
70800;SDS011;59616;52.170;5.386;2023-03-17T01:57:23;8.30;;;2.50;;
70800;SDS011;59616;52.170;5.386;2023-03-17T01:59:53;6.35;;;2.20;;
70800;SDS011;59616;52.170;5.386;2023-03-17T02:02:24;8.38;;;2.30;;
70800;SDS011;59616;52.170;5.386;2023-03-17T02:04:51;7.03;;;2.50;;
70800;SDS011;59616;52.170;5.386;2023-03-17T02:07:19;8.00;;;2.42;;
70800;SDS011;59616;52.170;5.386;2023-03-17T02:09:47;7.85;;;2.45;;
70800;SDS011;59616;52.170;5.386;2023-03-17T02:12:18;5.47;;;2.38;;
70800;SDS011;59616;52.170;5.386;2023-03-17T02:14:48;5.53;;;2.20;;
70800;SDS011;59616;52.170;5.386;2023-03-17T02:17:15;5.75;;;1.90;;
70800;SDS011;59616;52.170;5.386;2023-03-17T02:19:42;8.43;;;2.25;;
70800;SDS011;59616;52.170;5.386;2023-03-17T02:22:10;7.22;;;2.03;;
70800;SDS011;59616;52.170;5.386;2023-03-17T02:24:41;8.23;;;2.15;;
70800;SDS011;59616;52.170;5.386;2023-03-17T02:27:16;5.60;;;2.00;;
70800;SDS011;59616;52.170;5.386;2023-03-17T02:29:44;8.02;;;2.30;;
70800;SDS011;59616;52.170;5.386;2023-03-17T02:32:13;8.32;;;2.10;;
70800;SDS011;59616;52.170;5.386;2023-03-17T02:34:40;5.50;;;2.20;;
70800;SDS011;59616;52.170;5.386;2023-03-17T02:37:07;5.72;;;1.95;;
70800;SDS011;59616;52.170;5.386;2023-03-17T02:39:34;7.53;;;2.20;;
70800;SDS011;59616;52.170;5.386;2023-03-17T02:42:03;6.00;;;2.40;;
70800;SDS011;59616;52.170;5.386;2023-03-17T02:44:32;6.15;;;2.00;;
70800;SDS011;59616;52.170;5.386;2023-03-17T02:47:00;8.23;;;1.90;;
70800;SDS011;59616;52.170;5.386;2023-03-17T02:49:28;6.07;;;2.10;;
70800;SDS011;59616;52.170;5.386;2023-03-17T02:51:56;5.57;;;2.03;;
70800;SDS011;59616;52.170;5.386;2023-03-17T02:54:23;8.48;;;2.05;;
70800;SDS011;59616;52.170;5.386;2023-03-17T02:56:50;5.38;;;1.90;;
70800;SDS011;59616;52.170;5.386;2023-03-17T02:59:17;6.28;;;2.10;;
70800;SDS011;59616;52.170;5.386;2023-03-17T03:01:45;5.28;;;2.10;;
70800;SDS011;59616;52.170;5.386;2023-03-17T03:04:13;6.60;;;2.35;;
70800;SDS011;59616;52.170;5.386;2023-03-17T03:06:40;6.80;;;2.10;;
70800;SDS011;59616;52.170;5.386;2023-03-17T03:09:09;8.38;;;2.00;;
70800;SDS011;59616;52.170;5.386;2023-03-17T03:11:37;5.32;;;2.05;;
70800;SDS011;59616;52.170;5.386;2023-03-17T03:14:05;5.75;;;1.95;;
70800;SDS011;59616;52.170;5.386;2023-03-17T03:16:33;9.00;;;2.00;;
70800;SDS011;59616;52.170;5.386;2023-03-17T03:19:00;5.78;;;2.05;;
70800;SDS011;59616;52.170;5.386;2023-03-17T03:21:27;7.72;;;2.10;;
70800;SDS011;59616;52.170;5.386;2023-03-17T03:23:55;6.75;;;2.00;;
70800;SDS011;59616;52.170;5.386;2023-03-17T03:26:22;5.82;;;2.15;;
70800;SDS011;59616;52.170;5.386;2023-03-17T03:28:49;6.15;;;2.10;;
70800;SDS011;59616;52.170;5.386;2023-03-17T03:31:17;6.43;;;1.83;;
70800;SDS011;59616;52.170;5.386;2023-03-17T03:33:44;6.57;;;2.20;;
70800;SDS011;59616;52.170;5.386;2023-03-17T03:36:11;8.18;;;2.08;;
70800;SDS011;59616;52.170;5.386;2023-03-17T03:38:38;5.82;;;2.03;;
70800;SDS011;59616;52.170;5.386;2023-03-17T03:41:06;6.47;;;2.17;;
70800;SDS011;59616;52.170;5.386;2023-03-17T03:43:34;5.15;;;1.63;;
70800;SDS011;59616;52.170;5.386;2023-03-17T03:46:01;4.30;;;1.48;;
70800;SDS011;59616;52.170;5.386;2023-03-17T03:48:29;5.82;;;1.88;;
70800;SDS011;59616;52.170;5.386;2023-03-17T03:50:57;5.68;;;1.80;;
70800;SDS011;59616;52.170;5.386;2023-03-17T03:53:24;4.85;;;1.90;;
70800;SDS011;59616;52.170;5.386;2023-03-17T03:55:52;5.32;;;1.60;;
70800;SDS011;59616;52.170;5.386;2023-03-17T03:58:19;5.88;;;1.90;;
70800;SDS011;59616;52.170;5.386;2023-03-17T04:00:47;5.68;;;1.88;;
70800;SDS011;59616;52.170;5.386;2023-03-17T04:03:14;6.93;;;2.10;;
70800;SDS011;59616;52.170;5.386;2023-03-17T04:05:42;6.40;;;2.10;;
70800;SDS011;59616;52.170;5.386;2023-03-17T04:08:09;4.63;;;1.73;;
70800;SDS011;59616;52.170;5.386;2023-03-17T04:10:36;6.82;;;2.20;;
70800;SDS011;59616;52.170;5.386;2023-03-17T04:13:04;6.20;;;1.90;;
70800;SDS011;59616;52.170;5.386;2023-03-17T04:15:31;5.38;;;1.92;;
70800;SDS011;59616;52.170;5.386;2023-03-17T04:17:58;5.50;;;1.98;;
70800;SDS011;59616;52.170;5.386;2023-03-17T04:20:26;6.30;;;1.90;;
70800;SDS011;59616;52.170;5.386;2023-03-17T04:22:54;5.70;;;1.77;;
70800;SDS011;59616;52.170;5.386;2023-03-17T04:25:21;7.25;;;2.13;;
70800;SDS011;59616;52.170;5.386;2023-03-17T04:27:48;8.50;;;2.00;;
70800;SDS011;59616;52.170;5.386;2023-03-17T04:30:16;5.78;;;2.30;;
70800;SDS011;59616;52.170;5.386;2023-03-17T04:32:43;5.93;;;2.05;;
70800;SDS011;59616;52.170;5.386;2023-03-17T04:35:12;4.85;;;1.70;;
70800;SDS011;59616;52.170;5.386;2023-03-17T04:37:40;7.95;;;2.03;;
70800;SDS011;59616;52.170;5.386;2023-03-17T04:40:07;7.30;;;1.90;;
70800;SDS011;59616;52.170;5.386;2023-03-17T04:42:35;4.72;;;1.77;;
70800;SDS011;59616;52.170;5.386;2023-03-17T04:45:03;7.95;;;2.15;;
70800;SDS011;59616;52.170;5.386;2023-03-17T04:47:30;5.22;;;1.90;;
70800;SDS011;59616;52.170;5.386;2023-03-17T04:49:58;5.32;;;1.90;;
70800;SDS011;59616;52.170;5.386;2023-03-17T04:52:25;6.47;;;2.10;;
70800;SDS011;59616;52.170;5.386;2023-03-17T04:54:52;6.07;;;1.85;;
70800;SDS011;59616;52.170;5.386;2023-03-17T04:57:19;4.72;;;1.73;;
70800;SDS011;59616;52.170;5.386;2023-03-17T04:59:47;5.85;;;2.05;;
70800;SDS011;59616;52.170;5.386;2023-03-17T05:02:14;5.88;;;1.80;;
70800;SDS011;59616;52.170;5.386;2023-03-17T05:04:41;7.30;;;1.90;;
70800;SDS011;59616;52.170;5.386;2023-03-17T05:07:12;6.78;;;2.00;;
70800;SDS011;59616;52.170;5.386;2023-03-17T05:09:40;6.68;;;1.85;;
70800;SDS011;59616;52.170;5.386;2023-03-17T05:12:07;6.53;;;2.40;;
70800;SDS011;59616;52.170;5.386;2023-03-17T05:14:35;6.70;;;2.15;;
70800;SDS011;59616;52.170;5.386;2023-03-17T05:17:02;5.32;;;1.83;;
70800;SDS011;59616;52.170;5.386;2023-03-17T05:19:29;5.80;;;1.73;;
70800;SDS011;59616;52.170;5.386;2023-03-17T05:21:56;4.93;;;2.10;;
70800;SDS011;59616;52.170;5.386;2023-03-17T05:24:24;7.28;;;2.42;;
70800;SDS011;59616;52.170;5.386;2023-03-17T05:26:51;5.38;;;2.00;;
70800;SDS011;59616;52.170;5.386;2023-03-17T05:29:18;5.00;;;1.90;;
70800;SDS011;59616;52.170;5.386;2023-03-17T05:31:45;6.85;;;2.00;;
70800;SDS011;59616;52.170;5.386;2023-03-17T05:34:12;5.85;;;1.80;;
70800;SDS011;59616;52.170;5.386;2023-03-17T05:36:41;7.80;;;2.00;;
70800;SDS011;59616;52.170;5.386;2023-03-17T05:39:09;9.90;;;2.15;;
70800;SDS011;59616;52.170;5.386;2023-03-17T05:41:39;6.55;;;1.98;;
70800;SDS011;59616;52.170;5.386;2023-03-17T05:44:06;5.88;;;2.20;;
70800;SDS011;59616;52.170;5.386;2023-03-17T05:46:34;7.20;;;1.80;;
70800;SDS011;59616;52.170;5.386;2023-03-17T05:49:01;7.35;;;2.00;;
70800;SDS011;59616;52.170;5.386;2023-03-17T05:51:29;5.10;;;1.73;;
70800;SDS011;59616;52.170;5.386;2023-03-17T05:53:56;7.85;;;2.00;;
70800;SDS011;59616;52.170;5.386;2023-03-17T05:56:24;5.85;;;1.88;;
70800;SDS011;59616;52.170;5.386;2023-03-17T05:58:59;6.65;;;2.30;;
70800;SDS011;59616;52.170;5.386;2023-03-17T06:01:26;5.40;;;1.70;;
70800;SDS011;59616;52.170;5.386;2023-03-17T06:03:54;5.13;;;1.83;;
70800;SDS011;59616;52.170;5.386;2023-03-17T06:06:21;5.70;;;2.20;;
70800;SDS011;59616;52.170;5.386;2023-03-17T06:08:49;5.32;;;1.85;;
70800;SDS011;59616;52.170;5.386;2023-03-17T06:11:17;6.00;;;2.08;;
70800;SDS011;59616;52.170;5.386;2023-03-17T06:13:46;9.35;;;2.15;;
70800;SDS011;59616;52.170;5.386;2023-03-17T06:16:13;5.57;;;2.00;;
70800;SDS011;59616;52.170;5.386;2023-03-17T06:18:40;5.55;;;2.00;;
70800;SDS011;59616;52.170;5.386;2023-03-17T06:21:08;5.80;;;2.10;;
70800;SDS011;59616;52.170;5.386;2023-03-17T06:23:35;8.25;;;2.05;;
70800;SDS011;59616;52.170;5.386;2023-03-17T06:26:03;7.70;;;2.58;;
70800;SDS011;59616;52.170;5.386;2023-03-17T06:28:30;9.65;;;2.45;;
70800;SDS011;59616;52.170;5.386;2023-03-17T06:30:58;8.93;;;2.50;;
70800;SDS011;59616;52.170;5.386;2023-03-17T06:33:25;9.23;;;2.60;;
70800;SDS011;59616;52.170;5.386;2023-03-17T06:35:52;7.68;;;2.25;;
70800;SDS011;59616;52.170;5.386;2023-03-17T06:38:19;6.32;;;2.10;;
70800;SDS011;59616;52.170;5.386;2023-03-17T06:40:47;7.40;;;2.15;;
70800;SDS011;59616;52.170;5.386;2023-03-17T06:43:14;7.70;;;2.08;;
70800;SDS011;59616;52.170;5.386;2023-03-17T06:45:42;6.90;;;2.53;;
70800;SDS011;59616;52.170;5.386;2023-03-17T06:48:10;6.82;;;2.03;;
70800;SDS011;59616;52.170;5.386;2023-03-17T06:50:37;6.43;;;2.35;;
70800;SDS011;59616;52.170;5.386;2023-03-17T06:53:05;9.52;;;2.50;;
70800;SDS011;59616;52.170;5.386;2023-03-17T06:55:32;8.27;;;2.05;;
70800;SDS011;59616;52.170;5.386;2023-03-17T06:57:59;8.85;;;2.47;;
70800;SDS011;59616;52.170;5.386;2023-03-17T07:00:28;9.60;;;2.40;;
70800;SDS011;59616;52.170;5.386;2023-03-17T07:02:55;6.70;;;2.30;;
70800;SDS011;59616;52.170;5.386;2023-03-17T07:05:23;7.70;;;2.20;;
70800;SDS011;59616;52.170;5.386;2023-03-17T07:07:50;6.53;;;2.20;;
70800;SDS011;59616;52.170;5.386;2023-03-17T07:10:17;6.60;;;2.35;;
70800;SDS011;59616;52.170;5.386;2023-03-17T07:12:45;8.77;;;2.40;;
70800;SDS011;59616;52.170;5.386;2023-03-17T07:15:13;7.28;;;2.80;;
70800;SDS011;59616;52.170;5.386;2023-03-17T07:17:42;6.75;;;2.25;;
70800;SDS011;59616;52.170;5.386;2023-03-17T07:20:11;5.97;;;2.28;;
70800;SDS011;59616;52.170;5.386;2023-03-17T07:22:39;6.90;;;2.30;;
70800;SDS011;59616;52.170;5.386;2023-03-17T07:25:06;8.02;;;2.63;;
70800;SDS011;59616;52.170;5.386;2023-03-17T07:27:35;7.13;;;2.30;;
70800;SDS011;59616;52.170;5.386;2023-03-17T07:30:03;7.25;;;2.10;;
70800;SDS011;59616;52.170;5.386;2023-03-17T07:32:30;12.63;;;2.80;;
70800;SDS011;59616;52.170;5.386;2023-03-17T07:34:58;7.50;;;2.40;;
70800;SDS011;59616;52.170;5.386;2023-03-17T07:37:25;8.30;;;2.63;;
70800;SDS011;59616;52.170;5.386;2023-03-17T07:39:52;5.72;;;2.28;;
70800;SDS011;59616;52.170;5.386;2023-03-17T07:42:20;7.00;;;2.38;;
70800;SDS011;59616;52.170;5.386;2023-03-17T07:44:47;7.05;;;2.60;;
70800;SDS011;59616;52.170;5.386;2023-03-17T07:47:14;5.88;;;2.13;;
70800;SDS011;59616;52.170;5.386;2023-03-17T07:49:42;8.15;;;2.85;;
70800;SDS011;59616;52.170;5.386;2023-03-17T07:52:09;8.45;;;2.50;;
70800;SDS011;59616;52.170;5.386;2023-03-17T07:54:38;7.97;;;2.70;;
70800;SDS011;59616;52.170;5.386;2023-03-17T07:57:08;8.80;;;2.65;;
70800;SDS011;59616;52.170;5.386;2023-03-17T07:59:36;9.32;;;2.70;;
70800;SDS011;59616;52.170;5.386;2023-03-17T08:02:03;8.10;;;2.38;;
70800;SDS011;59616;52.170;5.386;2023-03-17T08:04:30;7.75;;;2.30;;
70800;SDS011;59616;52.170;5.386;2023-03-17T08:06:58;7.13;;;2.50;;
70800;SDS011;59616;52.170;5.386;2023-03-17T08:09:26;6.00;;;2.50;;
70800;SDS011;59616;52.170;5.386;2023-03-17T08:11:53;8.60;;;2.70;;
70800;SDS011;59616;52.170;5.386;2023-03-17T08:14:21;7.90;;;2.67;;
70800;SDS011;59616;52.170;5.386;2023-03-17T08:16:48;7.75;;;2.50;;
70800;SDS011;59616;52.170;5.386;2023-03-17T08:19:16;7.45;;;2.20;;
70800;SDS011;59616;52.170;5.386;2023-03-17T08:21:43;6.22;;;2.28;;
70800;SDS011;59616;52.170;5.386;2023-03-17T08:24:10;9.77;;;2.80;;
70800;SDS011;59616;52.170;5.386;2023-03-17T08:26:38;8.25;;;2.80;;
70800;SDS011;59616;52.170;5.386;2023-03-17T08:29:05;8.60;;;2.40;;
70800;SDS011;59616;52.170;5.386;2023-03-17T08:31:33;7.43;;;2.63;;
70800;SDS011;59616;52.170;5.386;2023-03-17T08:34:01;6.35;;;2.55;;
70800;SDS011;59616;52.170;5.386;2023-03-17T08:36:28;5.45;;;2.20;;
70800;SDS011;59616;52.170;5.386;2023-03-17T08:38:56;6.63;;;2.40;;
70800;SDS011;59616;52.170;5.386;2023-03-17T08:41:23;8.48;;;2.40;;
70800;SDS011;59616;52.170;5.386;2023-03-17T08:43:52;7.47;;;2.70;;
70800;SDS011;59616;52.170;5.386;2023-03-17T08:48:47;8.20;;;2.60;;
70800;SDS011;59616;52.170;5.386;2023-03-17T08:51:17;8.43;;;2.55;;
70800;SDS011;59616;52.170;5.386;2023-03-17T08:53:49;6.93;;;2.70;;
70800;SDS011;59616;52.170;5.386;2023-03-17T08:56:16;7.40;;;2.70;;
70800;SDS011;59616;52.170;5.386;2023-03-17T08:58:43;9.82;;;2.65;;
70800;SDS011;59616;52.170;5.386;2023-03-17T09:01:11;7.38;;;2.58;;
70800;SDS011;59616;52.170;5.386;2023-03-17T09:03:38;9.98;;;2.85;;
70800;SDS011;59616;52.170;5.386;2023-03-17T09:06:06;8.85;;;2.88;;
70800;SDS011;59616;52.170;5.386;2023-03-17T09:08:35;7.90;;;2.83;;
70800;SDS011;59616;52.170;5.386;2023-03-17T09:11:06;8.82;;;2.80;;
70800;SDS011;59616;52.170;5.386;2023-03-17T09:13:35;10.60;;;2.63;;
70800;SDS011;59616;52.170;5.386;2023-03-17T09:16:04;8.82;;;2.40;;
70800;SDS011;59616;52.170;5.386;2023-03-17T09:18:34;10.30;;;3.08;;
70800;SDS011;59616;52.170;5.386;2023-03-17T09:21:01;6.65;;;2.38;;
70800;SDS011;59616;52.170;5.386;2023-03-17T09:23:28;7.30;;;2.67;;
70800;SDS011;59616;52.170;5.386;2023-03-17T09:25:56;8.40;;;2.78;;
70800;SDS011;59616;52.170;5.386;2023-03-17T09:28:23;8.20;;;3.05;;
70800;SDS011;59616;52.170;5.386;2023-03-17T09:30:51;6.00;;;2.42;;
70800;SDS011;59616;52.170;5.386;2023-03-17T09:33:18;7.25;;;2.50;;
70800;SDS011;59616;52.170;5.386;2023-03-17T09:35:46;7.20;;;2.65;;
70800;SDS011;59616;52.170;5.386;2023-03-17T09:38:13;7.72;;;2.60;;
70800;SDS011;59616;52.170;5.386;2023-03-17T09:40:46;8.60;;;2.80;;
70800;SDS011;59616;52.170;5.386;2023-03-17T09:46:01;8.50;;;2.70;;
70800;SDS011;59616;52.170;5.386;2023-03-17T09:51:21;8.32;;;3.22;;
70800;SDS011;59616;52.170;5.386;2023-03-17T09:54:02;7.22;;;3.03;;
70800;SDS011;59616;52.170;5.386;2023-03-17T09:56:31;9.10;;;3.03;;
70800;SDS011;59616;52.170;5.386;2023-03-17T09:59:13;8.20;;;2.90;;
70800;SDS011;59616;52.170;5.386;2023-03-17T10:01:47;7.63;;;2.78;;
70800;SDS011;59616;52.170;5.386;2023-03-17T10:04:15;8.77;;;2.92;;
70800;SDS011;59616;52.170;5.386;2023-03-17T10:06:44;10.02;;;3.72;;
70800;SDS011;59616;52.170;5.386;2023-03-17T10:09:27;8.52;;;2.90;;
70800;SDS011;59616;52.170;5.386;2023-03-17T10:19:43;8.60;;;3.13;;
70800;SDS011;59616;52.170;5.386;2023-03-17T10:24:43;9.82;;;2.97;;
70800;SDS011;59616;52.170;5.386;2023-03-17T10:27:13;7.75;;;2.90;;
70800;SDS011;59616;52.170;5.386;2023-03-17T10:29:40;8.02;;;2.88;;
70800;SDS011;59616;52.170;5.386;2023-03-17T10:32:08;8.45;;;2.65;;
70800;SDS011;59616;52.170;5.386;2023-03-17T10:34:38;8.25;;;2.78;;
70800;SDS011;59616;52.170;5.386;2023-03-17T10:37:07;8.63;;;3.08;;
70800;SDS011;59616;52.170;5.386;2023-03-17T10:39:41;7.32;;;2.55;;
70800;SDS011;59616;52.170;5.386;2023-03-17T10:42:11;8.35;;;3.03;;
70800;SDS011;59616;52.170;5.386;2023-03-17T10:44:42;10.35;;;2.83;;
70800;SDS011;59616;52.170;5.386;2023-03-17T10:49:47;8.32;;;2.90;;
70800;SDS011;59616;52.170;5.386;2023-03-17T10:52:19;9.95;;;2.80;;
70800;SDS011;59616;52.170;5.386;2023-03-17T10:54:47;8.77;;;2.92;;
70800;SDS011;59616;52.170;5.386;2023-03-17T10:57:16;7.82;;;2.83;;
70800;SDS011;59616;52.170;5.386;2023-03-17T10:59:48;8.93;;;2.70;;
70800;SDS011;59616;52.170;5.386;2023-03-17T11:02:20;7.97;;;3.47;;
70800;SDS011;59616;52.170;5.386;2023-03-17T11:04:47;9.07;;;3.03;;
70800;SDS011;59616;52.170;5.386;2023-03-17T11:07:15;8.30;;;3.08;;
70800;SDS011;59616;52.170;5.386;2023-03-17T11:09:44;10.52;;;3.90;;
70800;SDS011;59616;52.170;5.386;2023-03-17T11:12:20;7.50;;;2.83;;
70800;SDS011;59616;52.170;5.386;2023-03-17T11:14:48;7.60;;;2.95;;
70800;SDS011;59616;52.170;5.386;2023-03-17T11:17:17;9.45;;;3.45;;
70800;SDS011;59616;52.170;5.386;2023-03-17T11:23:01;8.50;;;3.20;;
70800;SDS011;59616;52.170;5.386;2023-03-17T11:25:10;9.65;;;3.05;;
70800;SDS011;59616;52.170;5.386;2023-03-17T11:32:46;9.20;;;3.00;;
70800;SDS011;59616;52.170;5.386;2023-03-17T11:38:24;10.13;;;3.35;;
70800;SDS011;59616;52.170;5.386;2023-03-17T11:41:28;8.02;;;3.13;;
70800;SDS011;59616;52.170;5.386;2023-03-17T11:44:03;8.23;;;3.20;;
70800;SDS011;59616;52.170;5.386;2023-03-17T11:49:36;10.15;;;3.55;;
70800;SDS011;59616;52.170;5.386;2023-03-17T11:58:25;8.27;;;3.33;;
70800;SDS011;59616;52.170;5.386;2023-03-17T12:00:38;11.48;;;3.10;;
70800;SDS011;59616;52.170;5.386;2023-03-17T12:06:05;8.73;;;3.25;;
70800;SDS011;59616;52.170;5.386;2023-03-17T12:08:38;10.63;;;3.65;;
70800;SDS011;59616;52.170;5.386;2023-03-17T12:11:14;10.77;;;3.60;;
70800;SDS011;59616;52.170;5.386;2023-03-17T12:13:49;11.18;;;4.05;;
70800;SDS011;59616;52.170;5.386;2023-03-17T12:18:54;12.20;;;3.60;;
70800;SDS011;59616;52.170;5.386;2023-03-17T12:21:27;8.95;;;3.53;;
70800;SDS011;59616;52.170;5.386;2023-03-17T12:24:00;10.68;;;3.60;;
70800;SDS011;59616;52.170;5.386;2023-03-17T12:29:12;10.93;;;3.70;;
70800;SDS011;59616;52.170;5.386;2023-03-17T12:31:51;9.30;;;3.47;;
70800;SDS011;59616;52.170;5.386;2023-03-17T12:34:24;9.50;;;3.72;;
70800;SDS011;59616;52.170;5.386;2023-03-17T12:36:58;10.88;;;3.92;;
70800;SDS011;59616;52.170;5.386;2023-03-17T12:39:30;11.18;;;3.95;;
70800;SDS011;59616;52.170;5.386;2023-03-17T12:44:35;10.82;;;3.65;;
70800;SDS011;59616;52.170;5.386;2023-03-17T12:54:34;8.80;;;3.05;;
70800;SDS011;59616;52.170;5.386;2023-03-17T12:57:03;10.20;;;3.53;;
70800;SDS011;59616;52.170;5.386;2023-03-17T12:59:32;10.40;;;3.72;;
70800;SDS011;59616;52.170;5.386;2023-03-17T13:04:46;9.10;;;3.70;;
70800;SDS011;59616;52.170;5.386;2023-03-17T13:07:17;9.90;;;3.72;;
70800;SDS011;59616;52.170;5.386;2023-03-17T13:17:46;9.88;;;3.47;;
70800;SDS011;59616;52.170;5.386;2023-03-17T13:20:14;9.80;;;3.17;;
70800;SDS011;59616;52.170;5.386;2023-03-17T13:23:02;11.00;;;3.58;;
70800;SDS011;59616;52.170;5.386;2023-03-17T13:35:38;8.15;;;3.38;;
70800;SDS011;59616;52.170;5.386;2023-03-17T13:46:31;9.02;;;3.92;;
70800;SDS011;59616;52.170;5.386;2023-03-17T13:51:53;11.00;;;3.90;;
70800;SDS011;59616;52.170;5.386;2023-03-17T13:56:56;10.25;;;3.60;;
70800;SDS011;59616;52.170;5.386;2023-03-17T13:59:35;9.38;;;3.28;;
70800;SDS011;59616;52.170;5.386;2023-03-17T14:02:20;10.73;;;3.70;;
70800;SDS011;59616;52.170;5.386;2023-03-17T14:04:50;7.55;;;3.22;;
70800;SDS011;59616;52.170;5.386;2023-03-17T14:07:20;9.20;;;4.20;;
70800;SDS011;59616;52.170;5.386;2023-03-17T14:09:55;10.70;;;4.45;;
70800;SDS011;59616;52.170;5.386;2023-03-17T14:12:37;9.55;;;3.63;;
70800;SDS011;59616;52.170;5.386;2023-03-17T14:15:07;8.98;;;3.90;;
70800;SDS011;59616;52.170;5.386;2023-03-17T14:17:52;9.93;;;3.80;;
70800;SDS011;59616;52.170;5.386;2023-03-17T14:20:22;8.95;;;3.80;;
70800;SDS011;59616;52.170;5.386;2023-03-17T14:22:57;10.52;;;3.70;;
70800;SDS011;59616;52.170;5.386;2023-03-17T14:25:25;13.27;;;4.05;;
70800;SDS011;59616;52.170;5.386;2023-03-17T14:27:56;9.52;;;3.53;;
70800;SDS011;59616;52.170;5.386;2023-03-17T14:30:25;9.98;;;3.60;;
70800;SDS011;59616;52.170;5.386;2023-03-17T14:35:30;11.43;;;3.83;;
70800;SDS011;59616;52.170;5.386;2023-03-17T14:37:58;10.25;;;4.07;;
70800;SDS011;59616;52.170;5.386;2023-03-17T14:40:27;11.48;;;4.15;;
70800;SDS011;59616;52.170;5.386;2023-03-17T14:42:54;10.05;;;3.95;;
70800;SDS011;59616;52.170;5.386;2023-03-17T14:45:26;12.25;;;4.57;;
70800;SDS011;59616;52.170;5.386;2023-03-17T14:47:54;9.98;;;4.43;;
70800;SDS011;59616;52.170;5.386;2023-03-17T14:50:23;10.85;;;4.10;;
70800;SDS011;59616;52.170;5.386;2023-03-17T14:52:51;10.52;;;4.38;;
70800;SDS011;59616;52.170;5.386;2023-03-17T14:55:18;12.70;;;4.20;;
70800;SDS011;59616;52.170;5.386;2023-03-17T14:57:49;11.40;;;4.40;;
70800;SDS011;59616;52.170;5.386;2023-03-17T15:02:54;9.57;;;3.88;;
70800;SDS011;59616;52.170;5.386;2023-03-17T15:07:52;10.55;;;4.07;;
70800;SDS011;59616;52.170;5.386;2023-03-17T15:10:24;9.93;;;4.10;;
70800;SDS011;59616;52.170;5.386;2023-03-17T15:13:01;10.00;;;4.20;;
70800;SDS011;59616;52.170;5.386;2023-03-17T15:15:36;11.32;;;4.10;;
70800;SDS011;59616;52.170;5.386;2023-03-17T15:18:05;13.88;;;4.50;;
70800;SDS011;59616;52.170;5.386;2023-03-17T15:20:36;11.63;;;4.45;;
70800;SDS011;59616;52.170;5.386;2023-03-17T15:23:14;12.00;;;4.05;;
70800;SDS011;59616;52.170;5.386;2023-03-17T15:25:47;10.50;;;4.10;;
70800;SDS011;59616;52.170;5.386;2023-03-17T15:28:17;11.40;;;4.30;;
70800;SDS011;59616;52.170;5.386;2023-03-17T15:30:45;12.45;;;5.32;;
70800;SDS011;59616;52.170;5.386;2023-03-17T15:36:04;12.15;;;4.70;;
70800;SDS011;59616;52.170;5.386;2023-03-17T15:38:32;11.18;;;3.97;;
70800;SDS011;59616;52.170;5.386;2023-03-17T15:41:01;11.45;;;4.45;;
70800;SDS011;59616;52.170;5.386;2023-03-17T15:43:29;12.15;;;4.57;;
70800;SDS011;59616;52.170;5.386;2023-03-17T15:46:00;9.75;;;3.80;;
70800;SDS011;59616;52.170;5.386;2023-03-17T15:48:29;9.38;;;4.10;;
70800;SDS011;59616;52.170;5.386;2023-03-17T15:50:57;9.60;;;4.22;;
70800;SDS011;59616;52.170;5.386;2023-03-17T15:53:26;8.13;;;3.35;;
70800;SDS011;59616;52.170;5.386;2023-03-17T15:55:53;12.60;;;3.67;;
70800;SDS011;59616;52.170;5.386;2023-03-17T15:58:21;8.40;;;3.53;;
70800;SDS011;59616;52.170;5.386;2023-03-17T16:00:51;11.00;;;3.90;;
70800;SDS011;59616;52.170;5.386;2023-03-17T16:03:30;10.68;;;4.10;;
70800;SDS011;59616;52.170;5.386;2023-03-17T16:05:58;11.88;;;4.30;;
70800;SDS011;59616;52.170;5.386;2023-03-17T16:08:25;9.25;;;3.75;;
70800;SDS011;59616;52.170;5.386;2023-03-17T16:10:52;10.63;;;3.90;;
70800;SDS011;59616;52.170;5.386;2023-03-17T16:13:19;10.07;;;4.32;;
70800;SDS011;59616;52.170;5.386;2023-03-17T16:15:54;9.65;;;3.70;;
70800;SDS011;59616;52.170;5.386;2023-03-17T16:18:30;13.02;;;4.25;;
70800;SDS011;59616;52.170;5.386;2023-03-17T16:20:58;15.55;;;3.83;;
70800;SDS011;59616;52.170;5.386;2023-03-17T16:23:26;11.20;;;3.92;;
70800;SDS011;59616;52.170;5.386;2023-03-17T16:25:54;11.57;;;3.80;;
70800;SDS011;59616;52.170;5.386;2023-03-17T16:28:39;13.60;;;4.50;;
70800;SDS011;59616;52.170;5.386;2023-03-17T16:34:07;12.02;;;3.85;;
70800;SDS011;59616;52.170;5.386;2023-03-17T16:36:35;11.57;;;4.38;;
70800;SDS011;59616;52.170;5.386;2023-03-17T16:39:04;10.32;;;4.28;;
70800;SDS011;59616;52.170;5.386;2023-03-17T16:41:31;11.55;;;4.00;;
70800;SDS011;59616;52.170;5.386;2023-03-17T16:44:00;10.98;;;4.07;;
70800;SDS011;59616;52.170;5.386;2023-03-17T16:46:30;12.68;;;4.55;;
70800;SDS011;59616;52.170;5.386;2023-03-17T16:49:00;10.52;;;4.22;;